createdAt,value
2019-05-23T00:02:41.754Z,10.40
2019-05-23T00:05:36.457Z,10.40
2019-05-23T00:08:26.543Z,10.40
2019-05-23T00:11:00.965Z,10.30
2019-05-23T00:13:56.837Z,10.30
2019-05-23T00:16:26.954Z,10.20
2019-05-23T00:18:55.628Z,10.20
2019-05-23T00:21:23.334Z,10.20
2019-05-23T00:23:51.111Z,10.20
2019-05-23T00:26:18.858Z,10.20
2019-05-23T00:28:48.315Z,10.10
2019-05-23T00:31:31.857Z,10.10
2019-05-23T00:33:59.376Z,10.00
2019-05-23T00:36:28.439Z,10.00
2019-05-23T00:38:56.551Z,10.00
2019-05-23T00:41:24.878Z,10.00
2019-05-23T00:43:53.119Z,9.90
2019-05-23T00:46:22.405Z,9.90
2019-05-23T00:48:51.587Z,9.90
2019-05-23T00:51:21.425Z,9.80
2019-05-23T00:53:49.281Z,9.80
2019-05-23T00:56:17.406Z,9.80
2019-05-23T00:58:45.886Z,9.70
2019-05-23T01:01:13.834Z,9.70
2019-05-23T01:03:42.947Z,9.70
2019-05-23T01:06:12.668Z,9.60
2019-05-23T01:08:40.131Z,9.60
2019-05-23T01:11:08.729Z,9.60
2019-05-23T01:13:36.985Z,9.60
2019-05-23T01:16:04.529Z,9.50
2019-05-23T01:18:32.165Z,9.50
2019-05-23T01:21:17.943Z,9.40
2019-05-23T01:23:52.262Z,9.40
2019-05-23T01:26:19.841Z,9.40
2019-05-23T01:28:47.965Z,9.30
2019-05-23T01:31:19.296Z,9.30
2019-05-23T01:33:47.795Z,9.30
2019-05-23T01:36:15.921Z,9.20
2019-05-23T01:38:44.695Z,9.20
2019-05-23T01:41:14.131Z,9.20
2019-05-23T01:43:42.944Z,9.10
2019-05-23T01:46:10.968Z,9.10
2019-05-23T01:48:39.719Z,9.10
2019-05-23T01:51:09.220Z,9.10
2019-05-23T01:53:37.791Z,9.00
2019-05-23T01:56:06.276Z,9.00
2019-05-23T01:58:34.413Z,9.00
2019-05-23T02:01:01.993Z,8.90
2019-05-23T02:03:31.276Z,8.90
2019-05-23T02:05:58.859Z,8.90
2019-05-23T02:08:27.252Z,8.90
2019-05-23T02:13:41.481Z,8.80
2019-05-23T02:16:09.274Z,8.70
2019-05-23T02:18:37.235Z,8.70
2019-05-23T02:21:05.446Z,8.70
2019-05-23T02:23:34.194Z,8.70
2019-05-23T02:26:02.068Z,8.70
2019-05-23T02:28:30.382Z,8.70
2019-05-23T02:30:58.871Z,8.60
2019-05-23T02:33:28.005Z,8.60
2019-05-23T02:35:57.335Z,8.60
2019-05-23T02:38:42.843Z,8.60
2019-05-23T02:41:29.206Z,8.50
2019-05-23T02:44:03.211Z,8.50
2019-05-23T02:46:44.097Z,8.50
2019-05-23T02:49:12.877Z,8.50
2019-05-23T02:51:41.393Z,8.50
2019-05-23T02:54:11.471Z,8.40
2019-05-23T02:56:42.049Z,8.40
2019-05-23T02:59:36.014Z,8.40
2019-05-23T03:02:59.669Z,8.30
2019-05-23T03:05:30.279Z,8.30
2019-05-23T03:07:59.991Z,8.30
2019-05-23T03:10:45.423Z,8.30
2019-05-23T03:13:13.019Z,8.20
2019-05-23T03:15:41.546Z,8.20
2019-05-23T03:18:10.308Z,8.20
2019-05-23T03:20:38.064Z,8.20
2019-05-23T03:23:10.891Z,8.20
2019-05-23T03:26:23.206Z,8.20
2019-05-23T03:28:51.856Z,8.20
2019-05-23T03:31:42.130Z,8.10
2019-05-23T03:34:12.009Z,8.10
2019-05-23T03:36:41.723Z,8.10
2019-05-23T03:39:11.360Z,8.10
2019-05-23T03:41:39.968Z,8.10
2019-05-23T03:44:08.341Z,8.10
2019-05-23T03:46:37.130Z,8.10
2019-05-23T03:49:07.103Z,8.10
2019-05-23T03:51:35.916Z,8.10
2019-05-23T03:54:05.219Z,8.10
2019-05-23T03:56:33.425Z,8.10
2019-05-23T03:59:01.712Z,8.10
2019-05-23T04:01:46.190Z,8.10
2019-05-23T04:04:02.569Z,8.10
2019-05-23T04:06:30.993Z,8.10
2019-05-23T04:08:58.985Z,8.10
2019-05-23T04:11:29.804Z,8.10
2019-05-23T04:13:57.516Z,8.10
2019-05-23T04:16:30.216Z,8.10
2019-05-23T04:18:55.405Z,8.10
2019-05-23T04:21:23.769Z,8.10
2019-05-23T04:23:51.549Z,8.10
2019-05-23T04:26:20.675Z,8.10
2019-05-23T04:28:48.568Z,8.10
2019-05-23T04:31:16.381Z,8.10
2019-05-23T04:33:44.186Z,8.20
2019-05-23T04:36:13.239Z,8.20
2019-05-23T04:38:41.495Z,8.20
2019-05-23T04:41:09.206Z,8.20
2019-05-23T04:43:36.857Z,8.20
2019-05-23T04:46:04.329Z,8.20
2019-05-23T04:48:32.315Z,8.30
2019-05-23T04:51:00.647Z,8.30
2019-05-23T04:53:30.918Z,8.30
2019-05-23T04:55:58.458Z,8.40
2019-05-23T04:58:48.442Z,8.40
2019-05-23T05:01:17.736Z,8.40
2019-05-23T05:03:46.601Z,8.50
2019-05-23T05:06:14.906Z,8.50
2019-05-23T05:08:42.890Z,8.50
2019-05-23T05:11:10.833Z,8.60
2019-05-23T05:13:43.491Z,8.60
2019-05-23T05:16:11.505Z,8.70
2019-05-23T05:18:39.166Z,8.80
2019-05-23T05:21:06.657Z,8.80
2019-05-23T05:23:35.368Z,8.90
2019-05-23T05:26:03.046Z,8.90
2019-05-23T05:28:31.656Z,9.00
2019-05-23T05:30:59.314Z,9.10
2019-05-23T05:33:27.619Z,9.20
2019-05-23T05:35:55.402Z,9.30
2019-05-23T05:38:23.243Z,9.50
2019-05-23T05:40:51.048Z,9.70
2019-05-23T05:43:19.359Z,9.90
2019-05-23T05:45:46.823Z,10.20
2019-05-23T05:48:14.406Z,10.50
2019-05-23T05:51:02.083Z,10.70
2019-05-23T05:53:30.034Z,11.00
2019-05-23T05:55:57.415Z,11.40
2019-05-23T05:58:25.404Z,11.60
2019-05-23T06:01:05.246Z,12.00
2019-05-23T06:03:32.961Z,12.30
2019-05-23T06:06:17.410Z,12.60
2019-05-23T06:08:45.937Z,12.90
2019-05-23T06:11:14.417Z,13.20
2019-05-23T06:13:41.827Z,13.50
2019-05-23T06:16:09.607Z,13.70
2019-05-23T06:18:37.128Z,14.00
2019-05-23T06:21:05.633Z,14.20
2019-05-23T06:23:33.646Z,14.50
2019-05-23T06:26:01.663Z,14.70
2019-05-23T06:28:31.029Z,15.00
2019-05-23T06:31:00.074Z,15.20
2019-05-23T06:33:27.661Z,15.40
2019-05-23T06:35:55.133Z,15.60
2019-05-23T06:38:23.496Z,15.80
2019-05-23T06:40:51.340Z,15.90
2019-05-23T06:43:18.824Z,16.10
2019-05-23T06:45:46.342Z,16.30
2019-05-23T06:48:15.176Z,16.50
2019-05-23T06:50:43.891Z,16.70
2019-05-23T06:53:11.670Z,16.80
2019-05-23T06:55:39.008Z,17.00
2019-05-23T06:58:07.443Z,17.20
2019-05-23T07:00:35.323Z,17.30
2019-05-23T07:03:03.654Z,17.40
2019-05-23T07:05:35.028Z,17.60
2019-05-23T07:08:03.648Z,17.70
2019-05-23T07:10:31.467Z,17.80
2019-05-23T07:12:59.136Z,17.90
2019-05-23T07:15:27.560Z,18.10
2019-05-23T07:17:56.793Z,18.20
2019-05-23T07:20:26.611Z,18.40
2019-05-23T07:22:54.478Z,18.50
2019-05-23T07:25:22.716Z,18.70
2019-05-23T07:27:51.302Z,18.80
2019-05-23T07:30:21.866Z,18.90
2019-05-23T07:32:49.571Z,19.10
2019-05-23T07:35:17.539Z,19.20
2019-05-23T07:37:45.367Z,19.30
2019-05-23T07:40:13.244Z,19.40
2019-05-23T07:42:41.860Z,19.50
2019-05-23T07:45:13.956Z,19.60
2019-05-23T07:47:42.173Z,19.70
2019-05-23T07:50:10.124Z,19.80
2019-05-23T07:52:38.833Z,19.90
2019-05-23T07:55:15.852Z,20.10
2019-05-23T07:57:43.941Z,20.20
2019-05-23T08:00:19.203Z,20.30
2019-05-23T08:02:48.705Z,20.40
2019-05-23T08:05:17.266Z,20.50
2019-05-23T08:07:45.038Z,20.50
2019-05-23T08:10:13.289Z,20.50
2019-05-23T08:12:43.840Z,20.60
2019-05-23T08:15:12.322Z,20.70
2019-05-23T08:17:39.826Z,20.80
2019-05-23T08:20:10.198Z,20.90
2019-05-23T08:22:38.722Z,20.90
2019-05-23T08:25:06.915Z,20.90
2019-05-23T08:27:34.441Z,20.90
2019-05-23T08:30:03.176Z,21.00
2019-05-23T08:32:31.919Z,21.00
2019-05-23T08:35:00.482Z,21.00
2019-05-23T08:37:28.555Z,21.10
2019-05-23T08:39:56.131Z,21.20
2019-05-23T08:42:26.557Z,21.20
2019-05-23T08:44:54.051Z,21.30
2019-05-23T08:47:21.692Z,21.30
2019-05-23T08:49:49.060Z,21.40
2019-05-23T08:52:16.551Z,21.40
2019-05-23T08:54:45.946Z,21.50
2019-05-23T08:57:14.494Z,21.60
2019-05-23T08:59:42.745Z,21.70
2019-05-23T09:02:11.696Z,21.80
2019-05-23T09:04:39.074Z,21.90
2019-05-23T09:07:09.147Z,21.90
2019-05-23T09:09:37.087Z,22.00
2019-05-23T09:12:05.277Z,22.10
2019-05-23T09:14:32.869Z,22.10
2019-05-23T09:17:00.620Z,22.20
2019-05-23T09:19:29.877Z,22.20
2019-05-23T09:21:58.283Z,22.30
2019-05-23T09:24:28.262Z,22.40
2019-05-23T09:26:55.856Z,22.40
2019-05-23T09:29:24.015Z,22.50
2019-05-23T09:31:51.657Z,22.60
2019-05-23T09:34:19.210Z,22.60
2019-05-23T09:36:46.989Z,22.60
2019-05-23T09:39:16.725Z,22.70
2019-05-23T09:41:45.215Z,22.70
2019-05-23T09:44:12.642Z,22.80
2019-05-23T09:46:40.326Z,22.80
2019-05-23T09:49:11.108Z,22.90
2019-05-23T09:51:37.496Z,22.90
2019-05-23T09:54:05.763Z,22.90
2019-05-23T09:56:33.206Z,23.00
2019-05-23T09:59:00.929Z,23.10
2019-05-23T10:01:28.851Z,23.10
2019-05-23T10:03:56.400Z,23.20
2019-05-23T10:06:26.158Z,23.30
2019-05-23T10:08:54.413Z,23.40
2019-05-23T10:11:21.901Z,23.40
2019-05-23T10:13:49.493Z,23.50
2019-05-23T10:16:17.583Z,23.60
2019-05-23T10:18:45.350Z,23.70
2019-05-23T10:21:17.096Z,23.70
2019-05-23T10:23:44.593Z,23.70
2019-05-23T10:26:13.373Z,23.80
2019-05-23T10:28:40.965Z,23.80
2019-05-23T10:31:10.320Z,23.90
2019-05-23T10:33:48.627Z,23.90
2019-05-23T10:36:17.169Z,23.90
2019-05-23T10:38:44.824Z,23.90
2019-05-23T10:41:12.445Z,23.90
2019-05-23T10:43:40.039Z,24.00
2019-05-23T10:46:07.549Z,24.00
2019-05-23T10:48:35.239Z,24.00
2019-05-23T10:51:03.166Z,24.10
2019-05-23T10:53:30.890Z,24.10
2019-05-23T10:55:58.501Z,24.20
2019-05-23T10:58:26.434Z,24.20
2019-05-23T11:00:55.210Z,24.20
2019-05-23T11:03:23.571Z,24.30
2019-05-23T11:05:51.235Z,24.40
2019-05-23T11:08:18.826Z,24.40
2019-05-23T11:10:46.844Z,24.40
2019-05-23T11:13:14.482Z,24.40
2019-05-23T11:15:42.159Z,24.30
2019-05-23T11:18:10.415Z,24.40
2019-05-23T11:20:38.118Z,24.40
2019-05-23T11:23:05.776Z,24.50
2019-05-23T11:25:34.326Z,24.50
2019-05-23T11:28:02.104Z,24.60
2019-05-23T11:30:47.351Z,24.60
2019-05-23T11:33:15.257Z,24.70
2019-05-23T11:35:44.310Z,24.70
2019-05-23T11:38:12.320Z,24.70
2019-05-23T11:40:40.110Z,24.70
2019-05-23T11:43:08.014Z,24.70
2019-05-23T11:45:46.136Z,24.70
2019-05-23T11:48:11.529Z,24.80
2019-05-23T11:50:39.443Z,24.90
2019-05-23T11:53:07.046Z,24.90
2019-05-23T11:55:34.671Z,25.00
2019-05-23T11:58:02.411Z,25.00
2019-05-23T12:01:09.254Z,25.10
2019-05-23T12:03:37.186Z,25.10
2019-05-23T12:06:05.904Z,25.20
2019-05-23T12:08:34.062Z,25.30
2019-05-23T12:11:01.979Z,25.40
2019-05-23T12:13:30.650Z,25.40
2019-05-23T12:15:58.639Z,25.40
2019-05-23T12:18:26.495Z,25.40
2019-05-23T12:20:55.123Z,25.40
2019-05-23T12:23:24.846Z,25.40
2019-05-23T12:25:52.713Z,25.30
2019-05-23T12:28:20.437Z,25.20
2019-05-23T12:30:48.067Z,25.20
2019-05-23T12:33:15.755Z,25.10
2019-05-23T12:35:43.206Z,25.10
2019-05-23T12:38:10.831Z,25.10
2019-05-23T12:40:38.557Z,25.10
2019-05-23T12:43:06.247Z,25.10
2019-05-23T12:45:33.840Z,25.10
2019-05-23T12:48:06.456Z,25.10
2019-05-23T12:50:40.738Z,25.20
2019-05-23T12:53:10.544Z,25.20
2019-05-23T12:55:38.052Z,25.10
2019-05-23T12:58:06.712Z,25.10
2019-05-23T13:00:46.523Z,25.20
2019-05-23T13:03:15.246Z,25.10
2019-05-23T13:05:43.075Z,25.20
2019-05-23T13:08:12.388Z,25.20
2019-05-23T13:10:40.094Z,25.30
2019-05-23T13:13:08.735Z,25.30
2019-05-23T13:15:36.963Z,25.30
2019-05-23T13:18:04.802Z,25.30
2019-05-23T13:20:33.449Z,25.40
2019-05-23T13:23:01.248Z,25.40
2019-05-23T13:25:29.034Z,25.40
2019-05-23T13:27:58.817Z,25.50
2019-05-23T13:30:27.628Z,25.60
2019-05-23T13:32:55.148Z,25.60
2019-05-23T13:35:23.166Z,25.60
2019-05-23T13:37:54.015Z,25.60
2019-05-23T13:40:20.678Z,25.60
2019-05-23T13:42:48.277Z,25.60
2019-05-23T13:45:16.134Z,25.70
2019-05-23T13:47:44.156Z,25.70
2019-05-23T13:50:12.904Z,25.70
2019-05-23T13:52:40.924Z,25.70
2019-05-23T13:55:08.803Z,25.70
2019-05-23T13:57:36.446Z,25.70
2019-05-23T14:00:04.784Z,25.70
2019-05-23T14:02:32.712Z,25.80
2019-05-23T14:05:00.299Z,25.80
2019-05-23T14:07:28.207Z,25.90
2019-05-23T14:09:56.073Z,25.90
2019-05-23T14:12:24.391Z,25.90
2019-05-23T14:14:51.929Z,25.80
2019-05-23T14:17:28.459Z,25.70
2019-05-23T14:19:55.886Z,25.70
2019-05-23T14:22:24.033Z,25.70
2019-05-23T14:24:51.442Z,25.80
2019-05-23T14:27:34.446Z,25.80
2019-05-23T14:30:10.928Z,25.80
2019-05-23T14:32:43.531Z,25.80
2019-05-23T14:35:11.974Z,25.70
2019-05-23T14:37:43.333Z,25.70
2019-05-23T14:40:13.456Z,25.60
2019-05-23T14:42:47.081Z,25.60
2019-05-23T14:45:30.257Z,25.50
2019-05-23T14:48:11.687Z,25.50
2019-05-23T14:50:49.407Z,25.40
2019-05-23T14:53:18.940Z,25.40
2019-05-23T14:55:47.738Z,25.40
2019-05-23T14:58:15.351Z,25.40
2019-05-23T15:00:44.413Z,25.50
2019-05-23T15:03:12.014Z,25.60
2019-05-23T15:05:39.845Z,25.60
2019-05-23T15:08:07.391Z,25.70
2019-05-23T15:10:34.975Z,25.70
2019-05-23T15:13:02.674Z,25.80
2019-05-23T15:15:30.057Z,25.80
2019-05-23T15:17:57.483Z,25.80
2019-05-23T15:20:25.000Z,25.80
2019-05-23T15:22:52.608Z,25.80
2019-05-23T15:25:20.210Z,25.80
2019-05-23T15:27:47.928Z,25.70
2019-05-23T15:30:16.009Z,25.70
2019-05-23T15:32:43.440Z,25.70
2019-05-23T15:35:11.644Z,25.70
2019-05-23T15:37:39.531Z,25.80
2019-05-23T15:40:07.119Z,25.80
2019-05-23T15:42:34.802Z,25.80
2019-05-23T15:45:02.598Z,25.80
2019-05-23T15:47:32.486Z,25.70
2019-05-23T15:50:06.094Z,25.70
2019-05-23T15:52:49.646Z,25.80
2019-05-23T15:55:26.285Z,25.90
2019-05-23T15:57:59.542Z,26.00
2019-05-23T16:00:45.832Z,26.00
2019-05-23T16:03:20.869Z,26.00
2019-05-23T16:06:01.753Z,26.00
2019-05-23T16:08:29.415Z,26.00
2019-05-23T16:10:57.226Z,26.00
2019-05-23T16:13:25.233Z,26.00
2019-05-23T16:15:53.200Z,26.20
2019-05-23T16:18:21.203Z,26.30
2019-05-23T16:20:48.916Z,26.40
2019-05-23T16:23:16.466Z,26.80
2019-05-23T16:25:44.067Z,27.60
2019-05-23T16:28:12.083Z,28.30
2019-05-23T16:30:40.119Z,28.40
2019-05-23T16:33:07.958Z,28.20
2019-05-23T16:35:35.525Z,28.40
2019-05-23T16:38:03.492Z,29.80
2019-05-23T16:40:31.275Z,28.90
2019-05-23T16:43:00.235Z,28.20
2019-05-23T16:45:27.738Z,28.00
2019-05-23T16:47:55.309Z,28.20
2019-05-23T16:50:23.225Z,27.90
2019-05-23T16:52:50.916Z,27.90
2019-05-23T16:55:27.193Z,27.80
2019-05-23T16:57:59.670Z,27.50
2019-05-23T17:00:58.877Z,27.10
2019-05-23T17:03:58.161Z,26.80
2019-05-23T17:06:32.869Z,26.40
2019-05-23T17:09:25.220Z,26.20
2019-05-23T17:12:01.488Z,26.00
2019-05-23T17:14:37.273Z,25.80
2019-05-23T17:17:43.557Z,25.70
2019-05-23T17:20:17.863Z,25.60
2019-05-23T17:22:56.499Z,25.60
2019-05-23T17:25:35.097Z,25.50
2019-05-23T17:28:10.619Z,25.40
2019-05-23T17:30:46.651Z,25.60
2019-05-23T17:33:14.348Z,26.20
2019-05-23T17:35:42.292Z,27.30
2019-05-23T17:38:09.916Z,28.40
2019-05-23T17:40:37.445Z,28.30
2019-05-23T17:43:05.212Z,28.50
2019-05-23T17:45:33.167Z,28.90
2019-05-23T17:48:00.853Z,29.40
2019-05-23T17:50:28.894Z,29.70
2019-05-23T17:52:56.501Z,29.70
2019-05-23T17:55:25.690Z,29.20
2019-05-23T17:57:56.691Z,28.70
2019-05-23T18:00:26.555Z,28.30
2019-05-23T18:02:54.326Z,27.90
2019-05-23T18:05:22.747Z,27.50
2019-05-23T18:07:50.642Z,27.20
2019-05-23T18:10:18.760Z,26.90
2019-05-23T18:12:47.725Z,26.60
2019-05-23T18:15:16.925Z,26.30
2019-05-23T18:17:44.844Z,26.10
2019-05-23T18:20:12.743Z,25.90
2019-05-23T18:22:40.453Z,25.70
2019-05-23T18:25:11.550Z,25.40
2019-05-23T18:27:39.361Z,25.20
2019-05-23T18:30:11.074Z,25.00
2019-05-23T18:32:39.684Z,24.70
2019-05-23T18:35:08.687Z,24.60
2019-05-23T18:37:36.570Z,24.30
2019-05-23T18:40:06.629Z,24.20
2019-05-23T18:42:34.260Z,24.00
2019-05-23T18:45:03.648Z,23.90
2019-05-23T18:47:38.071Z,23.70
2019-05-23T18:50:07.003Z,23.50
2019-05-23T18:52:34.711Z,23.40
2019-05-23T18:55:02.526Z,23.20
2019-05-23T18:57:30.634Z,23.10
2019-05-23T18:59:58.631Z,23.00
2019-05-23T19:02:27.322Z,22.80
2019-05-23T19:04:55.997Z,22.70
2019-05-23T19:07:24.082Z,22.50
2019-05-23T19:09:52.075Z,22.40
2019-05-23T19:12:20.165Z,22.30
2019-05-23T19:14:48.113Z,22.10
2019-05-23T19:17:15.934Z,22.00
2019-05-23T19:19:44.345Z,21.90
2019-05-23T19:22:13.271Z,21.80
2019-05-23T19:24:41.002Z,21.70
2019-05-23T19:27:14.197Z,21.60
2019-05-23T19:29:41.564Z,21.40
2019-05-23T19:32:10.489Z,21.30
2019-05-23T19:34:38.150Z,21.20
2019-05-23T19:37:07.668Z,21.10
2019-05-23T19:39:36.183Z,21.00
2019-05-23T19:42:04.492Z,20.90
2019-05-23T19:44:32.143Z,20.80
2019-05-23T19:47:00.643Z,20.70
2019-05-23T19:49:28.749Z,20.60
2019-05-23T19:51:56.621Z,20.50
2019-05-23T19:54:25.617Z,20.40
2019-05-23T19:56:53.377Z,20.20
2019-05-23T19:59:21.069Z,20.00
2019-05-23T20:02:11.811Z,19.80
2019-05-23T20:07:31.647Z,19.30
2019-05-23T20:09:59.620Z,19.10
2019-05-23T20:12:28.075Z,18.90
2019-05-23T20:14:57.024Z,18.70
2019-05-23T20:17:26.132Z,18.60
2019-05-23T20:19:54.059Z,18.40
2019-05-23T20:22:21.708Z,18.30
2019-05-23T20:24:49.724Z,18.20
2019-05-23T20:27:17.304Z,18.10
2019-05-23T20:29:44.882Z,18.00
2019-05-23T20:32:12.903Z,17.90
2019-05-23T20:34:40.740Z,17.90
2019-05-23T20:37:08.809Z,17.80
2019-05-23T20:39:37.691Z,17.70
2019-05-23T20:42:11.212Z,17.60
2019-05-23T20:44:34.979Z,17.60
2019-05-23T20:47:02.969Z,17.50
2019-05-23T20:49:30.563Z,17.40
2019-05-23T20:51:58.134Z,17.40
2019-05-23T20:54:25.816Z,17.30
2019-05-23T20:56:54.760Z,17.30
2019-05-23T20:59:24.184Z,17.20
2019-05-23T21:01:52.273Z,17.20
2019-05-23T21:04:22.272Z,17.10
2019-05-23T21:06:50.455Z,17.10
2019-05-23T21:09:18.079Z,17.10
2019-05-23T21:11:46.075Z,17.00
2019-05-23T21:14:13.884Z,17.00
2019-05-23T21:16:41.476Z,17.00
2019-05-23T21:19:09.006Z,16.90
2019-05-23T21:21:36.798Z,16.90
2019-05-23T21:24:04.640Z,16.80
2019-05-23T21:26:32.548Z,16.80
2019-05-23T21:29:00.154Z,16.70
2019-05-23T21:31:29.414Z,16.70
2019-05-23T21:33:56.987Z,16.60
2019-05-23T21:36:24.572Z,16.60
2019-05-23T21:38:52.523Z,16.50
2019-05-23T21:41:20.526Z,16.50
2019-05-23T21:43:50.033Z,16.40
2019-05-23T21:46:18.709Z,16.30
2019-05-23T21:48:46.802Z,16.20
2019-05-23T21:51:14.603Z,16.20
2019-05-23T21:54:01.730Z,16.10
2019-05-23T21:56:29.285Z,16.10
2019-05-23T21:58:56.998Z,16.00
2019-05-23T22:01:56.028Z,16.00
2019-05-23T22:04:34.136Z,15.90
2019-05-23T22:07:03.079Z,15.90
2019-05-23T22:09:30.686Z,15.80
2019-05-23T22:11:58.491Z,15.80
2019-05-23T22:14:26.194Z,15.70
2019-05-23T22:16:53.843Z,15.70
2019-05-23T22:19:23.037Z,15.70
2019-05-23T22:21:52.144Z,15.60
2019-05-23T22:24:20.259Z,15.60
2019-05-23T22:26:50.219Z,15.50
2019-05-23T22:29:17.793Z,15.50
2019-05-23T22:31:45.368Z,15.50
2019-05-23T22:34:20.133Z,15.40
2019-05-23T22:36:49.114Z,15.40
2019-05-23T22:39:16.841Z,15.30
2019-05-23T22:41:44.416Z,15.30
2019-05-23T22:44:13.743Z,15.20
2019-05-23T22:46:41.933Z,15.20
2019-05-23T22:49:09.661Z,15.10
2019-05-23T22:51:37.315Z,15.10
2019-05-23T22:54:05.006Z,15.10
2019-05-23T22:56:32.663Z,15.00
2019-05-23T22:59:00.171Z,15.00
2019-05-23T23:01:29.799Z,14.90
2019-05-23T23:03:57.443Z,14.90
2019-05-23T23:06:25.216Z,14.80
2019-05-23T23:08:52.923Z,14.80
2019-05-23T23:11:20.634Z,14.70
2019-05-23T23:13:49.664Z,14.70
2019-05-23T23:16:17.376Z,14.60
2019-05-23T23:18:45.095Z,14.60
2019-05-23T23:21:12.683Z,14.50
2019-05-23T23:23:40.584Z,14.50
2019-05-23T23:26:08.148Z,14.50
2019-05-23T23:28:36.631Z,14.40
2019-05-23T23:31:04.326Z,14.40
2019-05-23T23:33:31.963Z,14.40
2019-05-23T23:35:59.489Z,14.30
2019-05-23T23:38:28.969Z,14.30
2019-05-23T23:40:56.870Z,14.20
2019-05-23T23:43:24.319Z,14.20
2019-05-23T23:46:11.352Z,14.10
2019-05-23T23:48:56.789Z,14.10
2019-05-23T23:51:42.371Z,14.10
2019-05-23T23:54:28.224Z,14.00
2019-05-23T23:57:14.460Z,14.00
2019-05-23T23:59:41.601Z,13.90
